This is the latest recevied weather packets stored in our database for station/object DG2MCM-11. If no packets are shown the sender has not sent any weather packets the latest 10 day(s).
| Time | Temp. | Humidity | Pressure | Rain* | Wind** | Luminosity | Snow |
|---|---|---|---|---|---|---|---|
| 1777645680 | 22.22° C | 27% | 1021.6 hPa | 0 mm | - | - | - |
| 1777644477 | 23.33° C | 25% | 1021.4 hPa | 0 mm | - | - | - |
| 1777643876 | 22.78° C | 23% | 1021.6 hPa | 0 mm | - | - | - |
| 1777643274 | 23.89° C | 23% | 1021.5 hPa | 0 mm | - | - | - |
| 1777641470 | 24.44° C | 23% | 1021.4 hPa | 0 mm | - | - | - |
| 1777640868 | 25° C | 21% | 1021.3 hPa | 0 mm | - | - | - |
| 1777640267 | 23.89° C | 23% | 1021.7 hPa | 0 mm | - | - | - |
| 1777639725 | 23.89° C | 24% | 1021.9 hPa | 0 mm | - | - | - |
| 1777639124 | 24.44° C | 23% | 1021.8 hPa | 0 mm | - | - | - |
| 1777638522 | 25.56° C | 22% | 1021.6 hPa | 0 mm | - | - | - |
| 1777637920 | 26.11° C | 22% | 1021.5 hPa | 0 mm | - | - | - |
| 1777637319 | 26.11° C | 19% | 1021.6 hPa | 0 mm | - | - | - |
| 1777634913 | 28.89° C | 19% | 1021.2 hPa | 0 mm | - | - | - |
| 1777633711 | 26.67° C | 21% | 1021.8 hPa | 0 mm | - | - | - |
| 1777633109 | 28.33° C | 21% | 1021.5 hPa | 0 mm | - | - | - |
| 1777632508 | 27.78° C | 21% | 1021.7 hPa | 0 mm | - | - | - |
| 1777630704 | 27.78° C | 22% | 1021.9 hPa | 0 mm | - | - | - |
| 1777628299 | 26.67° C | 23% | 1022.4 hPa | 0 mm | - | - | - |
| 1777627697 | 25° C | 23% | 1022.8 hPa | 0 mm | - | - | - |
| 1777627095 | 25° C | 23% | 1022.9 hPa | 0 mm | - | - | - |
| 1777625892 | 25.56° C | 23% | 1022.8 hPa | 0 mm | - | - | - |
| 1777624690 | 23.89° C | 24% | 1023.1 hPa | 0 mm | - | - | - |
| 1777622885 | 24.44° C | 24% | 1022.8 hPa | 0 mm | - | - | - |
| 1777621682 | 20.56° C | 26% | 1023.6 hPa | 0 mm | - | - | - |
| 1777621081 | 19.44° C | 27% | 1023.9 hPa | 0 mm | - | - | - |
* Rain latest hour (hover to see other rain measurements)
** Current wind speed in m/s (hover to see current wind gust speed)